createdAt,value
2019-02-22T00:02:10.705Z,8.00
2019-02-22T00:04:38.093Z,7.90
2019-02-22T00:07:05.617Z,7.90
2019-02-22T00:09:33.089Z,7.90
2019-02-22T00:12:00.745Z,8.00
2019-02-22T00:14:28.474Z,8.00
2019-02-22T00:16:56.325Z,8.00
2019-02-22T00:19:24.185Z,7.90
2019-02-22T00:21:52.130Z,7.90
2019-02-22T00:24:19.588Z,7.90
2019-02-22T00:26:47.074Z,7.90
2019-02-22T00:29:14.800Z,7.90
2019-02-22T00:31:42.609Z,7.90
2019-02-22T00:34:10.155Z,7.90
2019-02-22T00:36:38.023Z,7.90
2019-02-22T00:39:05.810Z,7.90
2019-02-22T00:41:33.359Z,7.80
2019-02-22T00:44:00.830Z,8.00
2019-02-22T00:46:28.238Z,7.90
2019-02-22T00:48:55.719Z,7.90
2019-02-22T00:51:23.193Z,7.80
2019-02-22T00:53:50.560Z,7.90
2019-02-22T00:56:17.900Z,7.80
2019-02-22T00:58:45.292Z,7.80
2019-02-22T01:01:12.691Z,7.90
2019-02-22T01:03:40.204Z,7.90
2019-02-22T01:06:07.598Z,7.80
2019-02-22T01:08:35.077Z,7.80
2019-02-22T01:11:02.773Z,7.80
2019-02-22T01:13:30.232Z,7.80
2019-02-22T01:15:58.386Z,7.80
2019-02-22T01:18:25.945Z,7.90
2019-02-22T01:20:54.666Z,7.80
2019-02-22T01:23:22.715Z,7.80
2019-02-22T01:25:50.803Z,7.80
2019-02-22T01:28:18.696Z,7.80
2019-02-22T01:30:46.130Z,7.80
2019-02-22T01:33:13.862Z,7.80
2019-02-22T01:35:41.287Z,7.80
2019-02-22T01:38:09.188Z,7.80
2019-02-22T01:40:43.545Z,7.80
2019-02-22T01:43:05.942Z,7.80
2019-02-22T01:45:33.266Z,7.80
2019-02-22T01:48:00.656Z,7.80
2019-02-22T01:50:28.225Z,7.70
2019-02-22T01:52:56.161Z,7.70
2019-02-22T01:55:23.530Z,7.70
2019-02-22T01:57:51.051Z,7.80
2019-02-22T02:00:18.521Z,7.80
2019-02-22T02:02:45.980Z,7.70
2019-02-22T02:05:13.457Z,7.70
2019-02-22T02:07:40.959Z,7.70
2019-02-22T02:10:08.412Z,7.70
2019-02-22T02:12:35.891Z,7.70
2019-02-22T02:15:04.239Z,7.70
2019-02-22T02:17:32.010Z,7.60
2019-02-22T02:19:59.774Z,7.70
2019-02-22T02:22:27.142Z,7.70
2019-02-22T02:24:54.576Z,7.60
2019-02-22T02:27:22.075Z,7.70
2019-02-22T02:29:49.511Z,7.60
2019-02-22T02:32:17.566Z,7.70
2019-02-22T02:34:45.386Z,7.70
2019-02-22T02:37:12.860Z,7.70
2019-02-22T02:39:40.672Z,7.70
2019-02-22T02:42:08.102Z,7.70
2019-02-22T02:44:35.593Z,7.70
2019-02-22T02:47:03.050Z,7.70
2019-02-22T02:49:30.563Z,7.70
2019-02-22T02:51:58.087Z,7.60
2019-02-22T02:54:25.801Z,7.70
2019-02-22T02:56:53.368Z,7.70
2019-02-22T02:59:21.139Z,7.70
2019-02-22T03:01:48.510Z,7.70
2019-02-22T03:04:15.935Z,7.70
2019-02-22T03:06:54.485Z,7.70
2019-02-22T03:09:22.340Z,7.70
2019-02-22T03:17:06.646Z,7.70
2019-02-22T03:19:34.257Z,7.80
2019-02-22T03:22:01.673Z,7.70
2019-02-22T03:24:29.516Z,7.70
2019-02-22T03:26:56.927Z,7.70
2019-02-22T03:29:24.386Z,7.70
2019-02-22T03:31:51.883Z,7.80
2019-02-22T03:34:19.989Z,7.80
2019-02-22T03:36:47.358Z,7.80
2019-02-22T03:39:15.527Z,7.80
2019-02-22T03:41:43.701Z,7.70
2019-02-22T03:44:11.199Z,7.80
2019-02-22T03:46:38.926Z,7.80
2019-02-22T03:49:06.775Z,7.80
2019-02-22T03:51:34.171Z,7.70
2019-02-22T03:54:03.034Z,7.70
2019-02-22T03:56:30.662Z,7.70
2019-02-22T03:58:58.615Z,7.70
2019-02-22T04:01:26.700Z,7.70
2019-02-22T04:03:54.556Z,7.70
2019-02-22T04:06:22.261Z,7.60
2019-02-22T04:08:49.746Z,7.70
2019-02-22T04:11:17.573Z,7.80
2019-02-22T04:13:45.342Z,7.70
2019-02-22T04:16:13.023Z,7.70
2019-02-22T04:18:40.686Z,7.60
2019-02-22T04:21:08.167Z,7.60
2019-02-22T04:23:36.604Z,7.60
2019-02-22T04:26:04.172Z,7.70
2019-02-22T04:28:31.601Z,7.70
2019-02-22T04:30:59.479Z,7.70
2019-02-22T04:33:26.931Z,7.70
2019-02-22T04:35:54.708Z,7.70
2019-02-22T04:38:22.381Z,7.70
2019-02-22T04:40:50.141Z,7.70
2019-02-22T04:43:17.486Z,7.70
2019-02-22T04:45:44.939Z,7.70
2019-02-22T04:48:12.291Z,7.70
2019-02-22T04:50:39.777Z,7.70
2019-02-22T04:53:07.248Z,7.70
2019-02-22T04:55:34.705Z,7.70
2019-02-22T04:58:02.208Z,7.80
2019-02-22T05:00:30.458Z,7.70
2019-02-22T05:02:57.823Z,7.80
2019-02-22T05:05:25.298Z,7.70
2019-02-22T05:07:52.922Z,7.70
2019-02-22T05:10:20.319Z,7.80
2019-02-22T05:12:48.090Z,7.70
2019-02-22T05:15:15.530Z,7.70
2019-02-22T05:17:43.049Z,7.70
2019-02-22T05:20:10.520Z,7.70
2019-02-22T05:22:38.303Z,7.70
2019-02-22T05:25:06.211Z,7.70
2019-02-22T05:27:33.579Z,7.60
2019-02-22T05:30:00.989Z,7.60
2019-02-22T05:32:28.519Z,7.70
2019-02-22T05:34:56.124Z,7.70
2019-02-22T05:37:23.966Z,7.60
2019-02-22T05:39:51.533Z,7.60
2019-02-22T05:42:22.855Z,7.60
2019-02-22T05:44:48.379Z,7.60
2019-02-22T05:47:15.867Z,7.60
2019-02-22T05:49:43.453Z,7.60
2019-02-22T05:52:11.359Z,7.60
2019-02-22T05:54:38.946Z,7.60
2019-02-22T05:57:06.506Z,7.60
2019-02-22T05:59:33.972Z,7.60
2019-02-22T06:02:01.594Z,7.50
2019-02-22T06:04:29.140Z,7.50
2019-02-22T06:06:57.091Z,7.50
2019-02-22T06:09:24.530Z,7.50
2019-02-22T06:11:52.065Z,7.50
2019-02-22T06:14:19.605Z,7.50
2019-02-22T06:16:47.144Z,7.50
2019-02-22T06:19:15.102Z,7.50
2019-02-22T06:21:43.062Z,7.50
2019-02-22T06:24:10.579Z,7.50
2019-02-22T06:26:38.265Z,7.50
2019-02-22T06:29:05.683Z,7.50
2019-02-22T06:31:33.249Z,7.50
2019-02-22T06:34:00.790Z,7.50
2019-02-22T06:36:28.366Z,7.50
2019-02-22T06:38:55.860Z,7.50
2019-02-22T06:41:23.435Z,7.40
2019-02-22T06:43:51.426Z,7.40
2019-02-22T06:46:19.388Z,7.40
2019-02-22T06:48:47.033Z,7.40
2019-02-22T06:51:15.023Z,7.40
2019-02-22T06:53:42.518Z,7.40
2019-02-22T06:56:10.073Z,7.40
2019-02-22T06:58:37.667Z,7.40
2019-02-22T07:01:05.141Z,7.40
2019-02-22T07:03:32.595Z,7.30
2019-02-22T07:06:00.414Z,7.30
2019-02-22T07:08:27.794Z,7.30
2019-02-22T07:11:04.428Z,7.20
2019-02-22T07:13:32.581Z,7.30
2019-02-22T07:16:00.093Z,7.10
2019-02-22T07:18:28.330Z,7.20
2019-02-22T07:20:56.633Z,7.20
2019-02-22T07:23:24.165Z,7.20
2019-02-22T07:25:51.697Z,7.20
2019-02-22T07:28:19.487Z,7.10
2019-02-22T07:30:47.387Z,7.20
2019-02-22T07:33:14.865Z,7.10
2019-02-22T07:35:43.174Z,7.10
2019-02-22T07:38:10.697Z,7.00
2019-02-22T07:40:38.027Z,7.00
2019-02-22T07:43:08.291Z,7.00
2019-02-22T07:45:34.713Z,7.00
2019-02-22T07:48:02.335Z,7.00
2019-02-22T07:50:29.835Z,6.90
2019-02-22T07:52:57.437Z,7.00
2019-02-22T07:55:25.011Z,7.00
2019-02-22T07:57:52.878Z,7.00
2019-02-22T08:00:20.885Z,7.10
2019-02-22T08:02:48.389Z,7.00
2019-02-22T08:05:15.840Z,7.10
2019-02-22T08:07:43.198Z,7.10
2019-02-22T08:10:10.714Z,7.10
2019-02-22T08:12:38.568Z,7.00
2019-02-22T08:15:07.751Z,7.10
2019-02-22T08:17:35.258Z,7.20
2019-02-22T08:20:02.945Z,7.20
2019-02-22T08:22:30.943Z,7.20
2019-02-22T08:24:58.817Z,7.30
2019-02-22T08:27:26.193Z,7.40
2019-02-22T08:29:54.002Z,7.30
2019-02-22T08:32:21.982Z,7.30
2019-02-22T08:34:49.862Z,7.30
2019-02-22T08:37:17.451Z,7.30
2019-02-22T08:39:45.077Z,7.30
2019-02-22T08:42:12.920Z,7.30
2019-02-22T08:44:40.642Z,7.30
2019-02-22T08:47:08.065Z,7.40
2019-02-22T08:49:36.017Z,7.40
2019-02-22T08:52:03.546Z,7.40
2019-02-22T08:54:31.365Z,7.40
2019-02-22T08:56:58.800Z,7.40
2019-02-22T08:59:26.280Z,7.40
2019-02-22T09:01:53.743Z,7.50
2019-02-22T09:04:21.310Z,7.50
2019-02-22T09:06:52.121Z,7.40
2019-02-22T09:09:18.895Z,7.30
2019-02-22T09:11:46.394Z,7.40
2019-02-22T09:14:14.277Z,7.30
2019-02-22T09:16:41.838Z,7.30
2019-02-22T09:19:09.474Z,7.30
2019-02-22T09:21:37.137Z,7.30
2019-02-22T09:24:04.708Z,7.40
2019-02-22T09:26:32.355Z,7.50
2019-02-22T09:28:59.822Z,7.60
2019-02-22T09:31:27.881Z,7.70
2019-02-22T09:33:56.282Z,7.60
2019-02-22T09:36:23.880Z,7.60
2019-02-22T09:38:52.253Z,7.70
2019-02-22T09:41:19.738Z,7.60
2019-02-22T09:43:55.475Z,7.50
2019-02-22T09:46:18.079Z,7.60
2019-02-22T09:48:45.658Z,7.50
2019-02-22T09:51:14.421Z,7.40
2019-02-22T09:53:42.056Z,7.30
2019-02-22T09:56:09.738Z,7.30
2019-02-22T09:58:38.032Z,7.20
2019-02-22T10:01:05.826Z,7.20
2019-02-22T10:03:33.831Z,7.20
2019-02-22T10:06:01.759Z,7.20
2019-02-22T10:08:29.383Z,7.10
2019-02-22T10:10:57.082Z,7.00
2019-02-22T10:13:25.650Z,7.00
2019-02-22T10:15:53.732Z,7.00
2019-02-22T10:18:21.501Z,7.00
2019-02-22T10:20:49.468Z,7.00
2019-02-22T10:23:17.083Z,7.00
2019-02-22T10:25:44.652Z,7.10
2019-02-22T10:28:17.756Z,7.20
2019-02-22T10:30:42.442Z,7.10
2019-02-22T10:33:10.024Z,7.10
2019-02-22T10:35:38.583Z,7.10
2019-02-22T10:38:06.193Z,7.10
2019-02-22T10:40:33.922Z,7.00
2019-02-22T10:43:01.425Z,6.90
2019-02-22T10:45:29.217Z,6.80
2019-02-22T10:47:57.251Z,6.70
2019-02-22T10:50:25.215Z,6.60
2019-02-22T10:53:01.803Z,6.60
2019-02-22T10:55:22.443Z,6.60
2019-02-22T10:57:50.061Z,6.70
2019-02-22T11:00:17.783Z,6.80
2019-02-22T11:02:45.820Z,6.90
2019-02-22T11:05:13.411Z,6.80
2019-02-22T11:07:41.269Z,6.90
2019-02-22T11:10:09.887Z,6.80
2019-02-22T11:12:37.844Z,6.40
2019-02-22T11:15:07.055Z,6.30
2019-02-22T11:17:34.988Z,6.10
2019-02-22T11:20:02.565Z,6.10
2019-02-22T11:22:30.259Z,6.20
2019-02-22T11:24:58.480Z,6.30
2019-02-22T11:27:28.821Z,6.20
2019-02-22T11:29:56.589Z,6.10
2019-02-22T11:32:25.525Z,6.10
2019-02-22T11:34:53.855Z,6.00
2019-02-22T11:37:21.862Z,5.80
2019-02-22T11:39:49.558Z,5.80
2019-02-22T11:42:17.428Z,5.90
2019-02-22T11:44:45.116Z,5.80
2019-02-22T11:47:12.718Z,5.80
2019-02-22T11:49:40.413Z,5.70
2019-02-22T11:52:08.107Z,5.80
2019-02-22T11:54:35.822Z,5.80
2019-02-22T11:57:04.792Z,5.60
2019-02-22T11:59:32.434Z,5.60
2019-02-22T12:02:00.768Z,5.50
2019-02-22T12:04:28.449Z,5.40
2019-02-22T12:06:56.097Z,5.40
2019-02-22T12:09:23.901Z,5.30
2019-02-22T12:11:51.966Z,5.20
2019-02-22T12:14:19.841Z,5.20
2019-02-22T12:16:48.235Z,5.20
2019-02-22T12:19:16.007Z,5.10
2019-02-22T12:21:44.342Z,5.00
2019-02-22T12:24:12.340Z,5.10
2019-02-22T12:26:39.962Z,5.10
2019-02-22T12:29:07.766Z,5.10
2019-02-22T12:31:36.151Z,5.20
2019-02-22T12:34:03.646Z,5.20
2019-02-22T12:36:31.212Z,5.10
2019-02-22T12:38:59.529Z,5.10
2019-02-22T12:41:27.741Z,5.20
2019-02-22T12:43:55.991Z,5.20
2019-02-22T12:46:23.840Z,5.40
2019-02-22T12:48:52.553Z,5.40
2019-02-22T12:51:20.351Z,5.40
2019-02-22T12:53:48.182Z,5.40
2019-02-22T12:56:15.937Z,5.40
2019-02-22T12:58:44.413Z,5.40
2019-02-22T13:01:12.768Z,5.60
2019-02-22T13:03:40.595Z,5.50
2019-02-22T13:06:08.367Z,5.50
2019-02-22T13:08:38.778Z,5.50
2019-02-22T13:11:07.044Z,5.50
2019-02-22T13:13:35.797Z,5.50
2019-02-22T13:16:03.577Z,5.40
2019-02-22T13:18:32.300Z,5.50
2019-02-22T13:21:00.713Z,5.30
2019-02-22T13:23:29.365Z,5.20
2019-02-22T13:26:02.322Z,5.10
2019-02-22T13:28:30.775Z,5.00
2019-02-22T13:30:58.721Z,4.90
2019-02-22T13:33:26.705Z,4.90
2019-02-22T13:35:54.763Z,4.90
2019-02-22T13:38:22.398Z,5.00
2019-02-22T13:40:51.976Z,4.90
2019-02-22T13:43:20.917Z,4.90
2019-02-22T13:45:52.475Z,4.90
2019-02-22T13:48:25.508Z,4.80
2019-02-22T13:50:53.039Z,4.60
2019-02-22T13:53:21.593Z,4.70
2019-02-22T13:55:49.734Z,4.70
2019-02-22T13:58:17.621Z,4.80
2019-02-22T14:00:45.406Z,4.80
2019-02-22T14:03:13.785Z,4.80
2019-02-22T14:05:41.886Z,4.70
2019-02-22T14:08:09.994Z,4.70
2019-02-22T14:10:37.762Z,4.80
2019-02-22T14:13:05.421Z,4.80
2019-02-22T14:15:38.035Z,4.70
2019-02-22T14:18:03.188Z,4.60
2019-02-22T14:20:31.052Z,4.50
2019-02-22T14:22:59.109Z,4.20
2019-02-22T14:25:36.620Z,4.20
2019-02-22T14:28:05.689Z,4.30
2019-02-22T14:30:34.226Z,4.30
2019-02-22T14:33:02.576Z,4.30
2019-02-22T14:35:30.739Z,4.20
2019-02-22T14:37:58.577Z,4.20
2019-02-22T14:40:26.296Z,4.20
2019-02-22T14:42:54.531Z,4.20
2019-02-22T14:45:22.638Z,4.20
2019-02-22T14:47:50.546Z,4.30
2019-02-22T14:50:18.286Z,4.30
2019-02-22T14:52:46.065Z,4.30
2019-02-22T14:55:13.620Z,4.30
2019-02-22T14:57:48.083Z,4.30
2019-02-22T15:00:16.157Z,4.20
2019-02-22T15:02:43.696Z,4.10
2019-02-22T15:05:12.457Z,4.10
2019-02-22T15:07:40.265Z,4.10
2019-02-22T15:10:08.271Z,4.10
2019-02-22T15:12:35.919Z,4.10
2019-02-22T15:15:04.742Z,4.00
2019-02-22T15:17:40.524Z,3.80
2019-02-22T15:20:08.573Z,3.70
2019-02-22T15:22:36.089Z,3.60
2019-02-22T15:25:04.905Z,3.60
2019-02-22T15:27:32.877Z,3.60
2019-02-22T15:30:00.761Z,3.70
2019-02-22T15:32:28.184Z,3.70
2019-02-22T15:34:55.676Z,3.70
2019-02-22T15:37:23.390Z,3.70
2019-02-22T15:39:50.968Z,3.70
2019-02-22T15:42:18.505Z,3.80
2019-02-22T15:44:46.613Z,3.80
2019-02-22T15:47:14.075Z,3.70
2019-02-22T15:49:42.343Z,3.70
2019-02-22T15:52:10.407Z,3.70
2019-02-22T15:54:38.481Z,3.60
2019-02-22T15:57:06.021Z,3.60
2019-02-22T15:59:33.628Z,3.50
2019-02-22T16:02:01.060Z,3.50
2019-02-22T16:04:45.280Z,3.40
2019-02-22T16:07:13.223Z,3.40
2019-02-22T16:09:40.716Z,3.40
2019-02-22T16:12:08.297Z,3.40
2019-02-22T16:14:36.040Z,3.30
2019-02-22T16:17:03.921Z,3.30
2019-02-22T16:19:32.043Z,3.20
2019-02-22T16:22:00.086Z,3.20
2019-02-22T16:24:27.800Z,3.10
2019-02-22T16:27:02.461Z,3.10
2019-02-22T16:29:33.670Z,3.00
2019-02-22T16:32:02.004Z,3.00
2019-02-22T16:34:30.013Z,3.00
2019-02-22T16:36:58.026Z,3.00
2019-02-22T16:39:26.003Z,3.10
2019-02-22T16:41:53.688Z,3.10
2019-02-22T16:44:21.504Z,3.00
2019-02-22T16:46:49.892Z,3.00
2019-02-22T16:49:17.537Z,3.00
2019-02-22T16:51:45.222Z,3.00
2019-02-22T16:54:13.698Z,3.10
2019-02-22T16:56:41.080Z,2.90
2019-02-22T16:59:08.994Z,2.90
2019-02-22T17:01:36.642Z,3.00
2019-02-22T17:04:04.871Z,3.00
2019-02-22T17:06:32.431Z,3.10
2019-02-22T17:09:00.428Z,3.00
2019-02-22T17:11:28.533Z,3.00
2019-02-22T17:13:56.163Z,2.90
2019-02-22T17:16:23.717Z,2.80
2019-02-22T17:18:51.677Z,2.70
2019-02-22T17:21:19.838Z,2.60
2019-02-22T17:23:47.579Z,2.70
2019-02-22T17:26:16.058Z,2.70
2019-02-22T17:28:43.527Z,2.70
2019-02-22T17:31:11.476Z,2.70
2019-02-22T17:33:39.199Z,2.70
2019-02-22T17:36:07.020Z,2.70
2019-02-22T17:38:34.779Z,2.60
2019-02-22T17:41:02.254Z,2.60
2019-02-22T17:43:32.077Z,2.60
2019-02-22T17:46:02.625Z,2.60
2019-02-22T17:48:38.136Z,2.50
2019-02-22T17:51:05.615Z,2.50
2019-02-22T17:53:34.541Z,2.50
2019-02-22T17:56:02.444Z,2.50
2019-02-22T17:58:30.216Z,2.40
2019-02-22T18:00:58.713Z,2.40
2019-02-22T18:03:26.349Z,2.40
2019-02-22T18:05:53.979Z,2.50
2019-02-22T18:08:21.903Z,2.50
2019-02-22T18:10:49.415Z,2.30
2019-02-22T18:13:16.977Z,2.20
2019-02-22T18:15:44.521Z,2.20
2019-02-22T18:18:12.607Z,2.30
2019-02-22T18:20:40.282Z,2.30
2019-02-22T18:23:07.967Z,2.30
2019-02-22T18:25:35.954Z,2.20
2019-02-22T18:28:03.812Z,2.10
2019-02-22T18:30:31.341Z,2.10
2019-02-22T18:32:59.240Z,2.00
2019-02-22T18:35:26.735Z,2.00
2019-02-22T18:37:54.569Z,2.20
2019-02-22T18:40:22.099Z,2.10
2019-02-22T18:42:50.142Z,2.10
2019-02-22T18:45:17.655Z,2.10
2019-02-22T18:47:45.292Z,2.10
2019-02-22T18:50:13.221Z,2.10
2019-02-22T18:52:41.282Z,2.00
2019-02-22T18:55:09.420Z,2.10
2019-02-22T18:57:36.991Z,2.10
2019-02-22T19:00:07.818Z,2.00
2019-02-22T19:02:35.449Z,2.00
2019-02-22T19:05:04.182Z,1.90
2019-02-22T19:07:32.328Z,1.80
2019-02-22T19:09:59.915Z,1.80
2019-02-22T19:12:27.776Z,1.70
2019-02-22T19:14:58.004Z,1.70
2019-02-22T19:17:30.419Z,1.80
2019-02-22T19:19:58.753Z,1.80
2019-02-22T19:22:26.570Z,1.90
2019-02-22T19:24:54.009Z,1.70
2019-02-22T19:27:22.393Z,1.70
2019-02-22T19:29:50.970Z,1.70
2019-02-22T19:32:19.000Z,1.70
2019-02-22T19:34:47.217Z,1.70
2019-02-22T19:37:15.175Z,1.50
2019-02-22T19:39:42.629Z,1.50
2019-02-22T19:42:11.162Z,1.60
2019-02-22T19:44:39.051Z,1.60
2019-02-22T19:47:06.495Z,1.60
2019-02-22T19:49:34.501Z,1.60
2019-02-22T19:52:02.678Z,1.50
2019-02-22T19:54:30.577Z,1.40
2019-02-22T19:56:58.333Z,1.40
2019-02-22T19:59:26.464Z,1.30
2019-02-22T20:01:54.465Z,1.40
2019-02-22T20:04:22.760Z,1.40
2019-02-22T20:06:50.558Z,1.40
2019-02-22T20:09:18.582Z,1.50
2019-02-22T20:11:48.555Z,1.40
2019-02-22T20:14:16.208Z,1.40
2019-02-22T20:16:44.501Z,1.30
2019-02-22T20:19:12.081Z,1.20
2019-02-22T20:21:39.637Z,1.30
2019-02-22T20:24:07.185Z,1.30
2019-02-22T20:26:35.510Z,1.10
2019-02-22T20:29:03.048Z,1.10
2019-02-22T20:31:30.692Z,1.00
2019-02-22T20:33:58.216Z,1.00
2019-02-22T20:36:28.703Z,1.00
2019-02-22T20:38:58.624Z,1.10
2019-02-22T20:41:26.529Z,1.10
2019-02-22T20:43:54.524Z,1.10
2019-02-22T20:46:22.067Z,1.20
2019-02-22T20:49:00.329Z,1.20
2019-02-22T20:51:19.105Z,1.10
2019-02-22T20:53:47.091Z,1.10
2019-02-22T20:56:14.580Z,1.20
2019-02-22T20:58:43.086Z,1.30
2019-02-22T21:01:14.746Z,1.20
2019-02-22T21:03:40.825Z,1.10
2019-02-22T21:06:08.428Z,1.00
2019-02-22T21:08:36.094Z,0.90
2019-02-22T21:11:03.590Z,0.90
2019-02-22T21:13:31.493Z,0.80
2019-02-22T21:15:59.034Z,0.80
2019-02-22T21:18:26.572Z,0.70
2019-02-22T21:20:54.071Z,0.60
2019-02-22T21:23:21.659Z,0.60
2019-02-22T21:25:49.189Z,0.50
2019-02-22T21:28:17.567Z,0.40
2019-02-22T21:30:45.542Z,0.50
2019-02-22T21:33:13.984Z,0.40
2019-02-22T21:35:41.422Z,0.40
2019-02-22T21:38:09.016Z,0.30
2019-02-22T21:40:37.449Z,0.30
2019-02-22T21:43:05.065Z,0.20
2019-02-22T21:45:33.032Z,0.20
2019-02-22T21:48:01.056Z,0.30
2019-02-22T21:50:31.770Z,0.30
2019-02-22T21:52:59.291Z,0.30
2019-02-22T21:55:26.930Z,0.40
2019-02-22T21:57:54.508Z,0.40
2019-02-22T22:00:22.295Z,0.40
2019-02-22T22:02:50.186Z,0.50
2019-02-22T22:05:19.648Z,0.50
2019-02-22T22:07:48.322Z,0.50
2019-02-22T22:10:16.120Z,0.50
2019-02-22T22:12:44.099Z,0.50
2019-02-22T22:15:11.712Z,0.50
2019-02-22T22:17:39.192Z,0.40
2019-02-22T22:20:10.586Z,0.40
2019-02-22T22:22:38.633Z,0.50
2019-02-22T22:25:07.254Z,0.50
2019-02-22T22:27:37.465Z,0.40
2019-02-22T22:30:05.347Z,0.30
2019-02-22T22:32:32.779Z,0.40
2019-02-22T22:35:01.514Z,0.40
2019-02-22T22:37:29.151Z,0.30
2019-02-22T22:39:57.393Z,0.30
2019-02-22T22:42:25.144Z,0.20
2019-02-22T22:44:53.049Z,0.20
2019-02-22T22:47:21.874Z,0.10
2019-02-22T22:49:50.189Z,0.00
2019-02-22T22:52:17.705Z,0.00
2019-02-22T22:54:45.225Z,-0.10
2019-02-22T22:57:13.292Z,-0.20
2019-02-22T22:59:41.186Z,-0.20
2019-02-22T23:02:08.942Z,-0.20
2019-02-22T23:04:36.652Z,-0.30
2019-02-22T23:07:04.786Z,-0.30
2019-02-22T23:09:33.454Z,-0.40
2019-02-22T23:12:00.981Z,-0.30
2019-02-22T23:14:28.945Z,-0.30
2019-02-22T23:16:56.477Z,-0.40
2019-02-22T23:19:23.959Z,-0.30
2019-02-22T23:21:51.539Z,-0.40
2019-02-22T23:24:19.721Z,-0.40
2019-02-22T23:26:47.595Z,-0.30
2019-02-22T23:29:15.643Z,-0.40
2019-02-22T23:31:43.536Z,-0.40
2019-02-22T23:34:11.799Z,-0.40
2019-02-22T23:36:39.619Z,-0.40
2019-02-22T23:39:08.221Z,-0.50
2019-02-22T23:41:35.618Z,-0.50
2019-02-22T23:44:03.858Z,-0.50
2019-02-22T23:46:32.026Z,-0.50
2019-02-22T23:48:59.785Z,-0.60
2019-02-22T23:51:27.266Z,-0.50
2019-02-22T23:53:54.701Z,-0.50
2019-02-22T23:56:22.539Z,-0.50
2019-02-22T23:58:50.532Z,-0.50
